Terminal Aerodrome Forecast
Issued by NWS

Home | Current Version | Previous Version | Text Only | Print | Product List | Glossary On
Versions: 1 2 3 4 5 6 7 8 9 10 11 12 13 14
633
FTUS46 KMTR 281121
TAFOAK
TAF
KOAK 281121Z 2812/2918 31005KT P6SM SKC
     FM282200 29015G22KT P6SM SKC
     FM290400 28012KT P6SM SKC
     FM291000 30006KT P6SM SKC=

USA.gov is the U.S. government's official web portal to all federal, state and local government web resources and services.